sensor_id;sensor_type;location;lat;lon;timestamp;P1;durP1;ratioP1;P2;durP2;ratioP2
52342;SDS011;38277;51.972;4.624;2022-12-19T00:10:14;37.6;;;20.6;;
52342;SDS011;38277;51.972;4.624;2022-12-19T00:13:55;38.3;;;20.5;;
52342;SDS011;38277;51.972;4.624;2022-12-19T00:19:08;38.8;;;19.7;;
52342;SDS011;38277;51.972;4.624;2022-12-19T00:22:57;37.7;;;20.8;;
52342;SDS011;38277;51.972;4.624;2022-12-19T00:32:03;36.7;;;19.8;;
52342;SDS011;38277;51.972;4.624;2022-12-19T00:36:56;36.2;;;19.1;;
52342;SDS011;38277;51.972;4.624;2022-12-19T00:40:41;34.0;;;18.5;;
52342;SDS011;38277;51.972;4.624;2022-12-19T00:45:15;34.8;;;18.2;;
52342;SDS011;38277;51.972;4.624;2022-12-19T00:55:15;34.7;;;19.3;;
52342;SDS011;38277;51.972;4.624;2022-12-19T00:59:59;33.3;;;19.3;;
52342;SDS011;38277;51.972;4.624;2022-12-19T01:03:32;32.8;;;16.8;;
52342;SDS011;38277;51.972;4.624;2022-12-19T01:07:39;36.5;;;21.3;;
52342;SDS011;38277;51.972;4.624;2022-12-19T01:12:30;34.8;;;19.4;;
52342;SDS011;38277;51.972;4.624;2022-12-19T01:30:55;30.9;;;18.0;;
52342;SDS011;38277;51.972;4.624;2022-12-19T01:34:47;33.5;;;18.1;;
52342;SDS011;38277;51.972;4.624;2022-12-19T01:39:28;31.0;;;16.8;;
52342;SDS011;38277;51.972;4.624;2022-12-19T01:48:53;31.4;;;17.0;;
52342;SDS011;38277;51.972;4.624;2022-12-19T01:57:56;32.2;;;17.5;;
52342;SDS011;38277;51.972;4.624;2022-12-19T02:10:44;32.2;;;17.3;;
52342;SDS011;38277;51.972;4.624;2022-12-19T02:15:25;32.0;;;17.5;;
52342;SDS011;38277;51.972;4.624;2022-12-19T02:28:08;31.9;;;16.9;;
52342;SDS011;38277;51.972;4.624;2022-12-19T02:34:57;29.9;;;17.1;;
52342;SDS011;38277;51.972;4.624;2022-12-19T02:51:29;27.2;;;14.7;;
52342;SDS011;38277;51.972;4.624;2022-12-19T02:56:00;24.2;;;14.3;;
52342;SDS011;38277;51.972;4.624;2022-12-19T03:00:26;25.0;;;14.0;;
52342;SDS011;38277;51.972;4.624;2022-12-19T03:09:24;22.3;;;12.4;;
52342;SDS011;38277;51.972;4.624;2022-12-19T03:13:48;22.6;;;13.4;;
52342;SDS011;38277;51.972;4.624;2022-12-19T03:19:02;22.0;;;12.7;;
52342;SDS011;38277;51.972;4.624;2022-12-19T03:22:42;19.8;;;11.1;;
52342;SDS011;38277;51.972;4.624;2022-12-19T03:28:25;22.5;;;12.4;;
52342;SDS011;38277;51.972;4.624;2022-12-19T03:32:48;19.8;;;11.4;;
52342;SDS011;38277;51.972;4.624;2022-12-19T03:36:26;20.3;;;12.0;;
52342;SDS011;38277;51.972;4.624;2022-12-19T03:40:48;20.2;;;11.3;;
52342;SDS011;38277;51.972;4.624;2022-12-19T03:45:31;21.0;;;11.3;;
52342;SDS011;38277;51.972;4.624;2022-12-19T03:50:38;21.2;;;11.9;;
52342;SDS011;38277;51.972;4.624;2022-12-19T03:54:38;17.1;;;10.4;;
52342;SDS011;38277;51.972;4.624;2022-12-19T04:12:11;18.4;;;11.3;;
52342;SDS011;38277;51.972;4.624;2022-12-19T04:16:59;20.3;;;11.2;;
52342;SDS011;38277;51.972;4.624;2022-12-19T04:21:13;18.6;;;10.0;;
52342;SDS011;38277;51.972;4.624;2022-12-19T04:26:04;17.0;;;10.8;;
52342;SDS011;38277;51.972;4.624;2022-12-19T04:31:19;18.2;;;11.2;;
52342;SDS011;38277;51.972;4.624;2022-12-19T04:34:55;17.7;;;10.7;;
52342;SDS011;38277;51.972;4.624;2022-12-19T04:39:34;17.9;;;9.8;;
52342;SDS011;38277;51.972;4.624;2022-12-19T04:43:43;18.2;;;10.6;;
52342;SDS011;38277;51.972;4.624;2022-12-19T04:48:08;16.0;;;9.3;;
52342;SDS011;38277;51.972;4.624;2022-12-19T04:52:45;15.5;;;9.5;;
52342;SDS011;38277;51.972;4.624;2022-12-19T04:57:15;17.4;;;9.9;;
52342;SDS011;38277;51.972;4.624;2022-12-19T05:01:55;14.9;;;8.6;;
52342;SDS011;38277;51.972;4.624;2022-12-19T05:15:19;16.5;;;10.2;;
52342;SDS011;38277;51.972;4.624;2022-12-19T05:24:21;15.1;;;8.5;;
52342;SDS011;38277;51.972;4.624;2022-12-19T05:29:19;17.3;;;9.6;;
52342;SDS011;38277;51.972;4.624;2022-12-19T05:34:19;17.6;;;10.1;;
52342;SDS011;38277;51.972;4.624;2022-12-19T05:51:33;18.1;;;10.3;;
52342;SDS011;38277;51.972;4.624;2022-12-19T06:10:01;18.3;;;9.7;;
52342;SDS011;38277;51.972;4.624;2022-12-19T06:37:10;16.7;;;9.3;;
52342;SDS011;38277;51.972;4.624;2022-12-19T07:04:15;17.1;;;8.4;;
52342;SDS011;38277;51.972;4.624;2022-12-19T07:07:46;18.8;;;8.4;;
52342;SDS011;38277;51.972;4.624;2022-12-19T07:12:21;16.6;;;8.3;;
52342;SDS011;38277;51.972;4.624;2022-12-19T07:21:09;15.0;;;7.6;;
52342;SDS011;38277;51.972;4.624;2022-12-19T07:26:40;15.4;;;8.0;;
52342;SDS011;38277;51.972;4.624;2022-12-19T07:30:31;12.3;;;6.5;;
52342;SDS011;38277;51.972;4.624;2022-12-19T07:34:59;16.2;;;7.9;;
52342;SDS011;38277;51.972;4.624;2022-12-19T07:39:32;15.4;;;7.4;;
52342;SDS011;38277;51.972;4.624;2022-12-19T07:44:02;15.6;;;7.3;;
52342;SDS011;38277;51.972;4.624;2022-12-19T07:48:29;17.8;;;8.8;;
52342;SDS011;38277;51.972;4.624;2022-12-19T07:53:07;13.4;;;7.1;;
52342;SDS011;38277;51.972;4.624;2022-12-19T07:57:31;15.5;;;7.9;;
52342;SDS011;38277;51.972;4.624;2022-12-19T08:03:29;14.3;;;7.9;;
52342;SDS011;38277;51.972;4.624;2022-12-19T08:06:32;14.2;;;7.3;;
52342;SDS011;38277;51.972;4.624;2022-12-19T08:10:50;13.6;;;7.5;;
52342;SDS011;38277;51.972;4.624;2022-12-19T08:15:22;16.5;;;7.4;;
52342;SDS011;38277;51.972;4.624;2022-12-19T08:24:58;14.9;;;8.0;;
52342;SDS011;38277;51.972;4.624;2022-12-19T09:00:51;14.2;;;7.2;;
52342;SDS011;38277;51.972;4.624;2022-12-19T09:04:36;16.5;;;7.3;;
52342;SDS011;38277;51.972;4.624;2022-12-19T09:09:11;11.7;;;6.7;;
52342;SDS011;38277;51.972;4.624;2022-12-19T09:19:09;12.5;;;6.8;;
52342;SDS011;38277;51.972;4.624;2022-12-19T09:27:34;12.3;;;6.9;;
52342;SDS011;38277;51.972;4.624;2022-12-19T09:31:39;15.0;;;7.7;;
52342;SDS011;38277;51.972;4.624;2022-12-19T09:36:23;14.1;;;7.2;;
52342;SDS011;38277;51.972;4.624;2022-12-19T09:46:18;14.9;;;7.6;;
52342;SDS011;38277;51.972;4.624;2022-12-19T09:49:47;15.9;;;7.9;;
52342;SDS011;38277;51.972;4.624;2022-12-19T09:54:25;12.4;;;6.8;;
52342;SDS011;38277;51.972;4.624;2022-12-19T09:58:45;13.5;;;6.6;;
52342;SDS011;38277;51.972;4.624;2022-12-19T10:03:24;13.6;;;6.6;;
52342;SDS011;38277;51.972;4.624;2022-12-19T10:08:00;12.4;;;7.2;;
52342;SDS011;38277;51.972;4.624;2022-12-19T10:12:35;13.9;;;6.7;;
52342;SDS011;38277;51.972;4.624;2022-12-19T10:18:25;11.6;;;6.7;;
52342;SDS011;38277;51.972;4.624;2022-12-19T10:22:00;12.8;;;6.0;;
52342;SDS011;38277;51.972;4.624;2022-12-19T10:26:38;12.2;;;6.7;;
52342;SDS011;38277;51.972;4.624;2022-12-19T10:30:37;13.2;;;6.4;;
52342;SDS011;38277;51.972;4.624;2022-12-19T10:34:42;14.9;;;6.5;;
52342;SDS011;38277;51.972;4.624;2022-12-19T10:40:25;14.0;;;6.8;;
52342;SDS011;38277;51.972;4.624;2022-12-19T10:43:50;12.0;;;6.4;;
52342;SDS011;38277;51.972;4.624;2022-12-19T10:48:09;13.7;;;6.2;;
52342;SDS011;38277;51.972;4.624;2022-12-19T10:53:08;11.3;;;6.1;;
52342;SDS011;38277;51.972;4.624;2022-12-19T10:57:26;11.4;;;5.9;;
52342;SDS011;38277;51.972;4.624;2022-12-19T11:01:48;11.0;;;5.8;;
52342;SDS011;38277;51.972;4.624;2022-12-19T11:06:49;10.6;;;5.5;;
52342;SDS011;38277;51.972;4.624;2022-12-19T11:10:40;11.6;;;5.7;;
52342;SDS011;38277;51.972;4.624;2022-12-19T11:15:25;9.0;;;5.2;;
52342;SDS011;38277;51.972;4.624;2022-12-19T11:19:45;12.0;;;5.5;;
52342;SDS011;38277;51.972;4.624;2022-12-19T11:24:33;11.9;;;5.1;;
52342;SDS011;38277;51.972;4.624;2022-12-19T11:33:28;11.0;;;5.8;;
52342;SDS011;38277;51.972;4.624;2022-12-19T11:38:02;10.7;;;5.5;;
52342;SDS011;38277;51.972;4.624;2022-12-19T11:42:11;8.9;;;4.7;;
52342;SDS011;38277;51.972;4.624;2022-12-19T11:47:10;12.5;;;5.0;;
52342;SDS011;38277;51.972;4.624;2022-12-19T11:51:22;13.3;;;5.2;;
52342;SDS011;38277;51.972;4.624;2022-12-19T11:55:38;9.8;;;4.8;;
52342;SDS011;38277;51.972;4.624;2022-12-19T12:00:30;9.4;;;5.2;;
52342;SDS011;38277;51.972;4.624;2022-12-19T12:09:17;9.6;;;5.2;;
52342;SDS011;38277;51.972;4.624;2022-12-19T12:14:06;10.5;;;5.4;;
52342;SDS011;38277;51.972;4.624;2022-12-19T12:20:14;10.6;;;4.7;;
52342;SDS011;38277;51.972;4.624;2022-12-19T12:24:14;10.5;;;6.0;;
52342;SDS011;38277;51.972;4.624;2022-12-19T12:28:24;13.3;;;6.1;;
52342;SDS011;38277;51.972;4.624;2022-12-19T12:33:24;10.2;;;5.9;;
52342;SDS011;38277;51.972;4.624;2022-12-19T12:36:31;12.9;;;6.1;;
52342;SDS011;38277;51.972;4.624;2022-12-19T12:42:06;11.0;;;6.0;;
52342;SDS011;38277;51.972;4.624;2022-12-19T12:45:17;11.0;;;5.4;;
52342;SDS011;38277;51.972;4.624;2022-12-19T12:49:53;9.2;;;5.2;;
52342;SDS011;38277;51.972;4.624;2022-12-19T12:54:31;9.0;;;5.1;;
52342;SDS011;38277;51.972;4.624;2022-12-19T12:59:38;10.4;;;5.2;;
52342;SDS011;38277;51.972;4.624;2022-12-19T13:03:12;8.4;;;4.9;;
52342;SDS011;38277;51.972;4.624;2022-12-19T13:07:51;12.6;;;5.8;;
52342;SDS011;38277;51.972;4.624;2022-12-19T13:12:27;9.7;;;4.8;;
52342;SDS011;38277;51.972;4.624;2022-12-19T13:16:53;11.5;;;5.1;;
52342;SDS011;38277;51.972;4.624;2022-12-19T13:21:21;8.7;;;4.5;;
52342;SDS011;38277;51.972;4.624;2022-12-19T13:25:58;10.8;;;4.8;;
52342;SDS011;38277;51.972;4.624;2022-12-19T13:30:13;9.3;;;4.9;;
52342;SDS011;38277;51.972;4.624;2022-12-19T13:35:41;11.1;;;4.9;;
52342;SDS011;38277;51.972;4.624;2022-12-19T13:39:30;10.9;;;4.8;;
52342;SDS011;38277;51.972;4.624;2022-12-19T13:43:44;9.4;;;5.0;;
52342;SDS011;38277;51.972;4.624;2022-12-19T13:48:30;9.9;;;4.8;;
52342;SDS011;38277;51.972;4.624;2022-12-19T13:52:53;10.0;;;5.0;;
52342;SDS011;38277;51.972;4.624;2022-12-19T13:57:20;8.3;;;4.3;;
52342;SDS011;38277;51.972;4.624;2022-12-19T14:06:21;10.5;;;4.3;;
52342;SDS011;38277;51.972;4.624;2022-12-19T14:11:21;7.8;;;4.0;;
52342;SDS011;38277;51.972;4.624;2022-12-19T14:15:32;9.3;;;4.9;;
52342;SDS011;38277;51.972;4.624;2022-12-19T14:19:46;7.0;;;4.2;;
52342;SDS011;38277;51.972;4.624;2022-12-19T14:24:28;8.9;;;4.2;;
52342;SDS011;38277;51.972;4.624;2022-12-19T14:28:49;7.4;;;3.5;;
52342;SDS011;38277;51.972;4.624;2022-12-19T14:33:41;8.2;;;3.9;;
52342;SDS011;38277;51.972;4.624;2022-12-19T14:37:57;7.7;;;4.3;;
52342;SDS011;38277;51.972;4.624;2022-12-19T14:42:17;7.6;;;3.8;;
52342;SDS011;38277;51.972;4.624;2022-12-19T14:46:37;7.3;;;4.1;;
52342;SDS011;38277;51.972;4.624;2022-12-19T14:51:31;6.9;;;4.6;;
52342;SDS011;38277;51.972;4.624;2022-12-19T14:55:38;5.5;;;3.6;;
52342;SDS011;38277;51.972;4.624;2022-12-19T15:00:25;6.7;;;3.5;;
52342;SDS011;38277;51.972;4.624;2022-12-19T15:05:24;7.7;;;4.2;;
52342;SDS011;38277;51.972;4.624;2022-12-19T15:09:28;10.2;;;4.0;;
52342;SDS011;38277;51.972;4.624;2022-12-19T15:13:50;11.4;;;4.4;;
52342;SDS011;38277;51.972;4.624;2022-12-19T15:18:27;8.8;;;3.8;;
52342;SDS011;38277;51.972;4.624;2022-12-19T15:22:41;5.9;;;3.4;;
52342;SDS011;38277;51.972;4.624;2022-12-19T15:27:09;8.0;;;4.4;;
52342;SDS011;38277;51.972;4.624;2022-12-19T15:32:05;9.5;;;4.1;;
52342;SDS011;38277;51.972;4.624;2022-12-19T15:37:15;6.0;;;3.7;;
52342;SDS011;38277;51.972;4.624;2022-12-19T15:40:48;9.0;;;4.2;;
52342;SDS011;38277;51.972;4.624;2022-12-19T15:45:19;8.7;;;3.7;;
52342;SDS011;38277;51.972;4.624;2022-12-19T15:49:45;6.8;;;3.3;;
52342;SDS011;38277;51.972;4.624;2022-12-19T15:54:29;7.1;;;3.4;;
52342;SDS011;38277;51.972;4.624;2022-12-19T15:58:41;8.1;;;3.3;;
52342;SDS011;38277;51.972;4.624;2022-12-19T16:03:10;8.7;;;3.4;;
52342;SDS011;38277;51.972;4.624;2022-12-19T16:08:05;7.3;;;3.6;;
52342;SDS011;38277;51.972;4.624;2022-12-19T16:12:18;6.4;;;3.5;;
52342;SDS011;38277;51.972;4.624;2022-12-19T16:16:37;9.2;;;4.1;;
52342;SDS011;38277;51.972;4.624;2022-12-19T16:21:16;9.6;;;4.0;;
52342;SDS011;38277;51.972;4.624;2022-12-19T16:25:58;10.7;;;3.8;;
52342;SDS011;38277;51.972;4.624;2022-12-19T16:30:17;8.2;;;4.6;;
52342;SDS011;38277;51.972;4.624;2022-12-19T16:34:56;11.9;;;4.4;;
52342;SDS011;38277;51.972;4.624;2022-12-19T16:39:19;6.9;;;4.0;;
52342;SDS011;38277;51.972;4.624;2022-12-19T16:43:39;11.9;;;4.5;;
52342;SDS011;38277;51.972;4.624;2022-12-19T16:48:15;9.4;;;3.9;;
52342;SDS011;38277;51.972;4.624;2022-12-19T16:52:48;8.2;;;4.0;;
52342;SDS011;38277;51.972;4.624;2022-12-19T16:57:27;9.7;;;4.6;;
52342;SDS011;38277;51.972;4.624;2022-12-19T17:02:01;9.0;;;4.2;;
52342;SDS011;38277;51.972;4.624;2022-12-19T17:06:29;10.3;;;3.7;;
52342;SDS011;38277;51.972;4.624;2022-12-19T17:10:47;8.1;;;4.4;;
52342;SDS011;38277;51.972;4.624;2022-12-19T17:15:21;8.3;;;3.8;;
52342;SDS011;38277;51.972;4.624;2022-12-19T17:19:50;9.6;;;4.3;;
52342;SDS011;38277;51.972;4.624;2022-12-19T17:24:30;14.2;;;4.6;;
52342;SDS011;38277;51.972;4.624;2022-12-19T17:33:31;9.6;;;4.3;;
52342;SDS011;38277;51.972;4.624;2022-12-19T17:38:03;8.2;;;4.6;;
52342;SDS011;38277;51.972;4.624;2022-12-19T17:42:30;7.3;;;4.3;;
52342;SDS011;38277;51.972;4.624;2022-12-19T17:51:21;8.3;;;4.3;;
52342;SDS011;38277;51.972;4.624;2022-12-19T17:56:04;9.8;;;4.3;;
52342;SDS011;38277;51.972;4.624;2022-12-19T18:09:14;9.2;;;4.6;;
52342;SDS011;38277;51.972;4.624;2022-12-19T18:13:58;9.7;;;4.9;;
52342;SDS011;38277;51.972;4.624;2022-12-19T18:18:14;7.1;;;3.8;;
52342;SDS011;38277;51.972;4.624;2022-12-19T18:27:23;10.0;;;3.8;;
52342;SDS011;38277;51.972;4.624;2022-12-19T18:31:40;9.2;;;4.1;;
52342;SDS011;38277;51.972;4.624;2022-12-19T18:36:16;9.1;;;4.8;;
52342;SDS011;38277;51.972;4.624;2022-12-19T18:45:14;7.9;;;3.9;;
52342;SDS011;38277;51.972;4.624;2022-12-19T18:54:12;10.1;;;4.8;;
52342;SDS011;38277;51.972;4.624;2022-12-19T19:03:31;9.5;;;4.5;;
52342;SDS011;38277;51.972;4.624;2022-12-19T19:07:39;10.5;;;4.4;;
52342;SDS011;38277;51.972;4.624;2022-12-19T19:12:15;8.9;;;4.9;;
52342;SDS011;38277;51.972;4.624;2022-12-19T19:16:51;10.2;;;4.8;;
52342;SDS011;38277;51.972;4.624;2022-12-19T19:21:23;8.8;;;4.8;;
52342;SDS011;38277;51.972;4.624;2022-12-19T19:30:21;10.5;;;4.6;;
52342;SDS011;38277;51.972;4.624;2022-12-19T19:39:07;9.6;;;4.8;;
52342;SDS011;38277;51.972;4.624;2022-12-19T19:43:38;10.9;;;4.9;;
52342;SDS011;38277;51.972;4.624;2022-12-19T19:48:56;9.9;;;4.7;;
52342;SDS011;38277;51.972;4.624;2022-12-19T19:52:57;9.1;;;4.1;;
52342;SDS011;38277;51.972;4.624;2022-12-19T19:57:35;12.0;;;4.3;;
52342;SDS011;38277;51.972;4.624;2022-12-19T20:02:03;7.9;;;4.3;;
52342;SDS011;38277;51.972;4.624;2022-12-19T20:06:22;9.7;;;4.5;;
52342;SDS011;38277;51.972;4.624;2022-12-19T20:12:20;8.8;;;4.1;;
52342;SDS011;38277;51.972;4.624;2022-12-19T20:16:13;9.6;;;4.2;;
52342;SDS011;38277;51.972;4.624;2022-12-19T20:19:47;10.8;;;4.8;;
52342;SDS011;38277;51.972;4.624;2022-12-19T20:24:55;9.4;;;4.9;;
52342;SDS011;38277;51.972;4.624;2022-12-19T20:28:55;7.8;;;4.7;;
52342;SDS011;38277;51.972;4.624;2022-12-19T20:33:14;8.2;;;4.8;;
52342;SDS011;38277;51.972;4.624;2022-12-19T20:38:49;10.1;;;4.7;;
52342;SDS011;38277;51.972;4.624;2022-12-19T20:42:11;8.7;;;4.7;;
52342;SDS011;38277;51.972;4.624;2022-12-19T20:46:55;13.8;;;4.8;;
52342;SDS011;38277;51.972;4.624;2022-12-19T20:51:22;7.5;;;4.0;;
52342;SDS011;38277;51.972;4.624;2022-12-19T21:04:47;10.8;;;4.5;;
52342;SDS011;38277;51.972;4.624;2022-12-19T21:13:52;9.1;;;4.3;;
52342;SDS011;38277;51.972;4.624;2022-12-19T21:18:15;7.3;;;3.8;;
52342;SDS011;38277;51.972;4.624;2022-12-19T21:22:36;8.1;;;4.1;;
52342;SDS011;38277;51.972;4.624;2022-12-19T21:31:43;9.8;;;4.4;;
52342;SDS011;38277;51.972;4.624;2022-12-19T21:36:21;9.4;;;4.2;;
52342;SDS011;38277;51.972;4.624;2022-12-19T21:41:45;9.3;;;4.6;;
52342;SDS011;38277;51.972;4.624;2022-12-19T21:45:09;11.9;;;4.5;;
52342;SDS011;38277;51.972;4.624;2022-12-19T21:49:53;7.2;;;3.7;;
52342;SDS011;38277;51.972;4.624;2022-12-19T21:54:16;7.3;;;3.8;;
52342;SDS011;38277;51.972;4.624;2022-12-19T21:58:54;8.4;;;3.7;;
52342;SDS011;38277;51.972;4.624;2022-12-19T22:03:20;9.7;;;4.3;;
52342;SDS011;38277;51.972;4.624;2022-12-19T22:08:22;9.0;;;3.9;;
52342;SDS011;38277;51.972;4.624;2022-12-19T22:17:01;9.8;;;4.3;;
52342;SDS011;38277;51.972;4.624;2022-12-19T22:21:26;9.8;;;4.1;;
52342;SDS011;38277;51.972;4.624;2022-12-19T22:26:32;9.0;;;3.9;;
52342;SDS011;38277;51.972;4.624;2022-12-19T22:30:05;10.8;;;4.2;;
52342;SDS011;38277;51.972;4.624;2022-12-19T22:34:51;7.6;;;4.1;;
52342;SDS011;38277;51.972;4.624;2022-12-19T22:39:15;9.6;;;3.8;;
52342;SDS011;38277;51.972;4.624;2022-12-19T22:43:56;8.1;;;3.4;;
52342;SDS011;38277;51.972;4.624;2022-12-19T22:48:06;6.9;;;3.6;;
52342;SDS011;38277;51.972;4.624;2022-12-19T22:52:38;8.6;;;3.5;;
52342;SDS011;38277;51.972;4.624;2022-12-19T22:57:09;8.4;;;3.9;;
52342;SDS011;38277;51.972;4.624;2022-12-19T23:01:55;9.1;;;3.9;;
52342;SDS011;38277;51.972;4.624;2022-12-19T23:06:33;8.1;;;3.8;;
52342;SDS011;38277;51.972;4.624;2022-12-19T23:10:48;8.8;;;3.9;;
52342;SDS011;38277;51.972;4.624;2022-12-19T23:15:56;8.2;;;3.6;;
52342;SDS011;38277;51.972;4.624;2022-12-19T23:20:37;7.1;;;3.4;;
52342;SDS011;38277;51.972;4.624;2022-12-19T23:24:14;8.3;;;3.7;;
52342;SDS011;38277;51.972;4.624;2022-12-19T23:28:36;8.0;;;3.6;;
52342;SDS011;38277;51.972;4.624;2022-12-19T23:33:18;7.2;;;3.8;;
52342;SDS011;38277;51.972;4.624;2022-12-19T23:37:52;7.9;;;3.7;;
52342;SDS011;38277;51.972;4.624;2022-12-19T23:42:16;8.1;;;4.7;;
52342;SDS011;38277;51.972;4.624;2022-12-19T23:46:35;6.3;;;3.6;;
52342;SDS011;38277;51.972;4.624;2022-12-19T23:51:15;6.5;;;3.4;;
52342;SDS011;38277;51.972;4.624;2022-12-19T23:55:42;8.4;;;4.1;;
